Time;durP1;ratioP1;P1;durP2;ratioP2;P2;SDS_P1;SDS_P2;PMS_P1;PMS_P2;Temp;Humidity;BMP_temperature;BMP_pressure;BME280_temperature;BME280_humidity;BME280_pressure;Samples;Min_cycle;Max_cycle;Signal;HPM_P1;HPM_P2
2021/08/15 00:00:06;;;;;;;8.82;7.13;;;;;;;22.01;40.57;94294.16;4972898;28;20034;-75
2021/08/15 00:02:32;;;;;;;9.18;6.47;;;;;;;22.01;40.58;94296.09;4972189;28;20046;-75
2021/08/15 00:04:57;;;;;;;7.32;6.18;;;;;;;21.97;40.68;94293.34;4973584;28;20040;-76
2021/08/15 00:07:23;;;;;;;10.48;6.65;;;;;;;21.87;40.86;94280.50;4973454;28;20026;-75
2021/08/15 00:09:49;;;;;;;8.60;7.00;;;;;;;21.94;41.35;94306.88;4972850;28;20925;-75
2021/08/15 00:12:14;;;;;;;8.07;6.07;;;;;;;21.77;41.38;94302.81;4974970;28;20062;-75
2021/08/15 00:14:40;;;;;;;9.15;6.40;;;;;;;21.71;41.36;94299.69;4968233;28;20140;-76
2021/08/15 00:17:05;;;;;;;8.05;6.60;;;;;;;21.58;41.47;94284.06;4973616;28;20048;-76
2021/08/15 00:19:31;;;;;;;7.13;6.15;;;;;;;21.56;42.32;94286.41;4970880;28;20479;-76
2021/08/15 00:21:57;;;;;;;9.52;8.20;;;;;;;21.56;42.13;94286.41;4969101;28;20326;-76
2021/08/15 00:24:22;;;;;;;7.45;6.75;;;;;;;21.69;41.66;94293.88;4973214;28;20049;-75
2021/08/15 00:26:47;;;;;;;8.35;7.43;;;;;;;21.66;41.86;94280.28;4970876;28;20038;-75
2021/08/15 00:29:13;;;;;;;7.25;6.45;;;;;;;21.44;42.02;94277.34;4976860;28;20079;-75
2021/08/15 00:31:39;;;;;;;13.45;6.82;;;;;;;21.54;42.50;94299.47;4978566;28;20400;-76
2021/08/15 00:34:05;;;;;;;8.13;6.65;;;;;;;21.44;42.16;94280.06;4978120;28;20038;-76
2021/08/15 00:36:30;;;;;;;12.82;6.05;;;;;;;21.27;42.45;94290.66;4972765;28;20386;-76
2021/08/15 00:38:55;;;;;;;8.43;7.15;;;;;;;21.37;42.60;94296.19;4975143;28;20038;-75
2021/08/15 00:41:22;;;;;;;7.63;6.88;;;;;;;21.33;42.36;94289.97;4972747;28;20042;-76
2021/08/15 00:43:47;;;;;;;9.30;7.00;;;;;;;21.27;42.44;94286.03;4973932;28;20029;-75
2021/08/15 00:46:13;;;;;;;8.20;6.55;;;;;;;21.36;42.89;94302.00;4979196;28;20034;-75
2021/08/15 00:48:40;;;;;;;9.65;6.80;;;;;;;21.25;43.03;94298.38;4973556;28;20047;-75
2021/08/15 00:51:05;;;;;;;9.40;7.35;;;;;;;21.23;43.00;94293.34;4977206;28;20042;-76
2021/08/15 00:53:40;;;;;;;8.43;6.40;;;;;;;21.14;43.23;94294.75;4972521;28;20030;-76
2021/08/15 00:56:08;;;;;;;7.50;6.80;;;;;;;21.11;43.01;94276.56;4977017;28;20061;-76
2021/08/15 00:58:34;;;;;;;7.85;7.05;;;;;;;21.18;43.36;94290.16;4966584;28;20738;-76
2021/08/15 01:01:04;;;;;;;7.18;6.22;;;;;;;21.01;43.15;94267.19;4978760;28;20548;-76
2021/08/15 01:03:30;;;;;;;8.10;6.68;;;;;;;21.16;43.18;94289.78;4976499;28;20038;-75
2021/08/15 01:05:57;;;;;;;10.15;7.05;;;;;;;20.99;43.24;94281.06;4978466;28;20038;-75
2021/08/15 01:08:22;;;;;;;9.27;7.10;;;;;;;21.10;43.02;94289.31;4975029;28;20046;-75
2021/08/15 01:10:48;;;;;;;7.75;7.05;;;;;;;21.01;43.32;94289.59;4989561;28;20023;-75
2021/08/15 01:13:13;;;;;;;10.52;6.75;;;;;;;20.89;44.03;94280.94;4977571;28;20039;-75
2021/08/15 01:15:39;;;;;;;9.70;7.07;;;;;;;20.97;43.62;94288.00;4973044;28;20406;-75
2021/08/15 01:18:27;;;;;;;11.60;7.57;;;;;;;20.85;43.21;94275.44;4978409;28;20039;-75
2021/08/15 01:21:13;;;;;;;11.82;7.60;;;;;;;20.83;43.69;94291.25;4976318;28;20625;-75
2021/08/15 01:23:42;;;;;;;9.13;6.78;;;;;;;20.74;44.42;94289.97;4973442;28;20081;-75
2021/08/15 01:26:10;;;;;;;7.97;7.18;;;;;;;20.65;44.25;94289.47;4972584;28;20382;-77
2021/08/15 01:28:36;;;;;;;9.00;7.45;;;;;;;20.59;44.32;94287.06;4996110;28;20062;-75
2021/08/15 01:31:01;;;;;;;9.45;7.80;;;;;;;20.48;44.16;94251.00;4974152;28;20477;-75
2021/08/15 01:33:35;;;;;;;8.85;6.78;;;;;;;20.63;43.83;94284.41;4980488;28;20089;-75
2021/08/15 01:36:02;;;;;;;7.85;7.05;;;;;;;20.51;44.45;94277.31;4976170;28;20089;-75
2021/08/15 01:38:30;;;;;;;11.15;7.20;;;;;;;20.56;44.52;94285.09;4974023;28;20661;-76
2021/08/15 01:40:56;;;;;;;14.50;7.72;;;;;;;20.67;44.09;94298.00;4976656;28;20105;-76
2021/08/15 01:43:22;;;;;;;9.02;7.07;;;;;;;20.66;43.90;94282.91;4977815;28;20040;-75
2021/08/15 01:45:47;;;;;;;7.28;6.53;;;;;;;20.57;44.45;94292.06;4973158;28;20492;-75
2021/08/15 01:48:13;;;;;;;8.35;7.40;;;;;;;20.57;44.41;94289.38;4975611;28;20072;-75
2021/08/15 01:50:40;;;;;;;11.57;7.20;;;;;;;20.61;44.20;94297.53;4977741;28;20138;-75
2021/08/15 01:53:17;;;;;;;7.03;6.43;;;;;;;20.47;44.32;94276.50;4971739;28;20046;-75
2021/08/15 01:55:43;;;;;;;11.13;6.63;;;;;;;20.62;43.93;94298.31;4977144;28;20030;-75
2021/08/15 01:58:10;;;;;;;10.30;7.75;;;;;;;20.62;43.96;94293.69;4972825;28;20067;-75
2021/08/15 02:00:37;;;;;;;8.40;6.85;;;;;;;20.48;44.52;94305.03;4974805;28;20097;-75
2021/08/15 02:03:03;;;;;;;8.25;7.35;;;;;;;20.43;44.79;94291.88;4972663;28;20534;-76
2021/08/15 02:05:29;;;;;;;8.07;7.03;;;;;;;20.33;44.73;94284.38;4978122;28;20026;-75
2021/08/15 02:07:55;;;;;;;8.25;7.05;;;;;;;20.42;44.38;94294.94;4976304;28;20038;-75
2021/08/15 02:10:23;;;;;;;8.38;7.03;;;;;;;20.34;44.82;94299.44;4989700;28;20385;-76
2021/08/15 02:12:48;;;;;;;9.80;6.60;;;;;;;20.33;44.08;94281.69;4974026;28;20034;-75
2021/08/15 02:15:14;;;;;;;10.13;6.93;;;;;;;20.37;44.28;94293.31;4971765;28;20049;-76
2021/08/15 02:17:39;;;;;;;9.90;7.03;;;;;;;20.37;44.40;94281.72;4977396;28;20494;-76
2021/08/15 02:20:06;;;;;;;12.55;7.75;;;;;;;20.40;44.30;94291.78;4971153;28;20239;-75
2021/08/15 02:22:31;;;;;;;10.68;6.20;;;;;;;20.36;44.39;94297.16;4975308;28;20089;-75
2021/08/15 02:24:56;;;;;;;7.70;6.90;;;;;;;20.25;44.57;94293.50;4977727;28;20603;-75
2021/08/15 02:27:22;;;;;;;9.00;6.85;;;;;;;20.28;44.48;94290.09;4972457;28;20050;-75
2021/08/15 02:29:47;;;;;;;8.82;7.00;;;;;;;20.29;44.31;94296.28;4990245;28;20641;-75
2021/08/15 02:32:13;;;;;;;7.90;6.88;;;;;;;20.14;45.36;94289.84;4972301;28;20560;-75
2021/08/15 02:34:38;;;;;;;10.65;7.30;;;;;;;20.18;45.07;94296.09;4975396;28;20034;-75
2021/08/15 02:37:03;;;;;;;8.07;7.28;;;;;;;20.22;44.65;94278.03;4973016;28;20058;-75
2021/08/15 02:39:29;;;;;;;7.32;6.63;;;;;;;20.28;44.66;94290.09;4972698;28;20038;-75
2021/08/15 02:41:54;;;;;;;10.43;7.30;;;;;;;20.21;44.40;94279.16;4974196;28;20074;-75
2021/08/15 02:44:20;;;;;;;7.80;7.00;;;;;;;20.20;44.32;94280.31;4977697;28;20129;-74
2021/08/15 02:46:45;;;;;;;10.35;7.32;;;;;;;20.20;44.46;94287.63;4973721;28;20030;-75
2021/08/15 02:49:10;;;;;;;11.73;7.97;;;;;;;20.14;44.41;94273.66;4973133;28;20814;-75
2021/08/15 02:51:36;;;;;;;10.77;7.15;;;;;;;20.08;44.75;94291.28;4976808;28;20180;-76
2021/08/15 02:54:01;;;;;;;10.38;6.13;;;;;;;20.01;44.69;94280.34;4973221;28;20363;-75
2021/08/15 02:56:27;;;;;;;8.68;7.35;;;;;;;20.00;45.02;94276.09;4974551;28;20108;-76
2021/08/15 02:58:52;;;;;;;12.02;7.38;;;;;;;20.07;44.79;94289.72;4973035;28;20176;-76
2021/08/15 03:01:17;;;;;;;8.95;6.97;;;;;;;20.08;44.71;94291.28;4975291;28;20027;-75
2021/08/15 03:03:43;;;;;;;11.48;7.22;;;;;;;20.11;44.58;94291.34;4976113;28;20084;-75
2021/08/15 03:06:08;;;;;;;7.75;6.47;;;;;;;20.14;44.54;94290.59;4976736;28;20056;-75
2021/08/15 03:08:33;;;;;;;10.73;6.70;;;;;;;20.06;44.31;94286.25;4974649;28;20536;-75
2021/08/15 03:10:59;;;;;;;9.63;8.23;;;;;;;19.91;44.70;94291.75;4974641;28;20029;-75
2021/08/15 03:13:24;;;;;;;8.90;6.70;;;;;;;19.99;44.91;94293.47;4974966;28;20388;-75
2021/08/15 03:15:49;;;;;;;8.15;6.45;;;;;;;19.92;45.39;94301.41;4975083;28;20050;-76
2021/08/15 03:18:18;;;;;;;8.40;7.50;;;;;;;19.90;45.34;94298.28;4973782;28;20060;-75
2021/08/15 03:20:46;;;;;;;8.85;6.85;;;;;;;19.66;45.78;94284.00;4971520;28;20046;-74
2021/08/15 03:23:12;;;;;;;9.43;7.32;;;;;;;19.78;45.82;94299.25;4971107;28;21104;-75
2021/08/15 03:25:38;;;;;;;7.60;6.78;;;;;;;19.81;45.70;94303.16;4977447;28;20034;-75
2021/08/15 03:28:05;;;;;;;10.85;7.32;;;;;;;19.80;45.78;94304.31;4976373;28;20429;-75
2021/08/15 03:30:31;;;;;;;9.73;7.60;;;;;;;19.75;45.72;94299.97;4969895;28;20031;-75
2021/08/15 03:32:56;;;;;;;7.45;6.75;;;;;;;19.83;45.37;94303.59;4973640;28;20099;-75
2021/08/15 03:35:22;;;;;;;9.15;7.25;;;;;;;19.66;45.65;94281.31;4974840;28;20389;-75
2021/08/15 03:37:47;;;;;;;9.93;7.75;;;;;;;19.71;45.37;94299.91;4991458;28;20240;-75
2021/08/15 03:40:13;;;;;;;8.20;6.30;;;;;;;19.73;45.65;94302.25;4970404;28;20049;-75
2021/08/15 03:42:38;;;;;;;9.13;7.30;;;;;;;19.75;45.36;94306.16;4972931;28;20171;-74
2021/08/15 03:45:06;;;;;;;9.70;7.88;;;;;;;19.75;45.49;94297.25;4976358;28;20046;-75
2021/08/15 03:47:32;;;;;;;9.90;7.18;;;;;;;19.82;45.54;94302.81;4971298;28;20034;-74
2021/08/15 03:50:01;;;;;;;10.25;7.57;;;;;;;19.73;45.39;94286.06;4975766;28;20022;-75
2021/08/15 03:52:27;;;;;;;8.80;7.15;;;;;;;19.80;45.61;94307.75;4975189;28;20105;-74
2021/08/15 03:54:52;;;;;;;11.25;8.18;;;;;;;19.82;45.40;94305.50;4973900;28;20030;-75
2021/08/15 03:57:18;;;;;;;8.68;7.80;;;;;;;19.87;45.35;94297.09;4971443;28;20113;-74
2021/08/15 03:59:44;;;;;;;10.93;6.97;;;;;;;19.96;45.35;94299.56;4973404;28;20164;-74
2021/08/15 04:02:10;;;;;;;8.98;6.97;;;;;;;19.88;45.84;94298.66;4976596;28;20038;-76
2021/08/15 04:04:36;;;;;;;9.43;7.15;;;;;;;19.86;46.16;94302.84;4972745;28;20045;-75
2021/08/15 04:07:01;;;;;;;10.48;8.32;;;;;;;19.88;45.99;94306.78;4974196;28;20073;-76
2021/08/15 04:09:26;;;;;;;8.32;7.43;;;;;;;19.90;46.04;94298.28;4972502;28;20134;-75
2021/08/15 04:11:52;;;;;;;9.55;6.50;;;;;;;19.95;45.94;94308.78;4971612;28;20042;-76
2021/08/15 04:14:17;;;;;;;12.25;7.47;;;;;;;19.99;45.80;94301.56;4973574;28;20113;-75
2021/08/15 04:16:42;;;;;;;11.93;7.53;;;;;;;20.07;45.67;94303.22;4975770;28;20033;-75
2021/08/15 04:19:08;;;;;;;10.75;7.47;;;;;;;20.19;45.80;94300.34;4971270;28;20104;-75
2021/08/15 04:21:33;;;;;;;8.15;6.68;;;;;;;20.12;46.28;94297.53;4973886;28;20141;-76
2021/08/15 04:23:59;;;;;;;11.38;7.82;;;;;;;20.13;46.45;94305.28;4972913;28;20705;-77
2021/08/15 04:26:24;;;;;;;10.10;7.05;;;;;;;20.09;46.87;94299.00;4974466;28;20038;-75
2021/08/15 04:28:50;;;;;;;9.82;7.53;;;;;;;20.18;46.91;94306.91;4973904;28;20057;-74
2021/08/15 04:31:15;;;;;;;11.65;8.25;;;;;;;20.31;45.41;94302.88;4971896;28;20033;-75
2021/08/15 04:33:41;;;;;;;9.32;7.90;;;;;;;20.38;45.05;94299.50;4972467;28;20839;-73
2021/08/15 04:36:06;;;;;;;9.70;7.60;;;;;;;20.55;44.46;94315.19;4967423;28;20038;-76
2021/08/15 04:38:32;;;;;;;11.15;7.88;;;;;;;20.60;44.58;94310.25;4972870;28;20042;-75
2021/08/15 04:40:57;;;;;;;11.05;8.95;;;;;;;20.67;44.34;94301.47;4974100;28;20026;-75
2021/08/15 04:43:22;;;;;;;10.70;8.45;;;;;;;20.74;44.12;94295.38;4973738;28;20011;-75
2021/08/15 04:45:48;;;;;;;12.05;8.10;;;;;;;20.94;42.99;94300.31;4972909;28;20048;-75
2021/08/15 04:48:14;;;;;;;11.52;8.80;;;;;;;20.99;42.86;94307.31;4974799;28;20034;-74
2021/08/15 04:50:40;;;;;;;12.48;8.85;;;;;;;20.91;42.32;94295.66;4974347;28;20385;-75
2021/08/15 04:53:05;;;;;;;10.25;8.70;;;;;;;21.03;42.78;94302.75;4973720;28;20098;-75
2021/08/15 04:55:31;;;;;;;11.68;8.45;;;;;;;21.05;42.87;94295.06;4976524;28;20034;-75
2021/08/15 04:57:56;;;;;;;12.93;9.07;;;;;;;21.17;42.95;94305.63;4973256;28;20052;-76
2021/08/15 05:00:22;;;;;;;11.07;8.18;;;;;;;21.22;42.69;94313.41;4973355;28;20053;-76
2021/08/15 05:02:47;;;;;;;13.80;7.40;;;;;;;21.31;42.77;94318.56;4973139;28;20136;-76
2021/08/15 05:05:13;;;;;;;13.05;7.75;;;;;;;21.44;41.97;94307.09;4973880;28;20038;-75
2021/08/15 05:07:38;;;;;;;13.80;8.25;;;;;;;21.52;42.07;94315.28;4974780;28;20479;-75
2021/08/15 05:10:04;;;;;;;11.57;7.32;;;;;;;21.59;41.54;94312.72;4972261;28;20047;-76
2021/08/15 05:12:30;;;;;;;18.88;9.50;;;;;;;21.62;41.52;94317.38;4976417;28;20515;-75
2021/08/15 05:14:55;;;;;;;11.98;8.30;;;;;;;21.54;41.43;94319.19;4976012;28;20045;-75
2021/08/15 05:17:20;;;;;;;11.43;7.63;;;;;;;21.64;40.98;94323.19;4976800;28;20034;-75
2021/08/15 05:19:46;;;;;;;13.10;7.57;;;;;;;21.72;41.40;94322.13;4977354;28;20042;-75
2021/08/15 05:22:11;;;;;;;10.60;7.15;;;;;;;21.60;40.90;94325.09;4978487;28;20061;-76
2021/08/15 05:24:37;;;;;;;12.88;9.10;;;;;;;21.57;41.04;94317.69;4972994;28;20035;-74
2021/08/15 05:27:03;;;;;;;13.50;7.57;;;;;;;21.58;41.07;94336.28;4973967;28;20081;-75
2021/08/15 05:29:28;;;;;;;9.73;8.77;;;;;;;21.43;41.73;94342.66;4976911;28;20058;-75
2021/08/15 05:31:54;;;;;;;9.65;8.20;;;;;;;21.36;41.67;94326.34;4974281;28;20141;-74
2021/08/15 05:34:19;;;;;;;10.35;9.30;;;;;;;21.46;41.82;94331.84;4975978;28;20041;-75
2021/08/15 05:36:44;;;;;;;13.05;7.88;;;;;;;21.58;41.48;94340.91;4975098;28;20508;-74
2021/08/15 05:39:10;;;;;;;12.38;8.32;;;;;;;21.54;41.19;94335.44;4978890;28;20375;-75
2021/08/15 05:41:35;;;;;;;11.00;8.35;;;;;;;21.61;41.13;94332.06;4976009;28;20108;-75
2021/08/15 05:44:00;;;;;;;12.35;8.27;;;;;;;21.71;41.28;94336.78;4973898;28;20046;-75
2021/08/15 05:46:26;;;;;;;9.85;7.90;;;;;;;21.57;41.37;94315.00;4977559;28;20130;-75
2021/08/15 05:48:51;;;;;;;15.13;8.63;;;;;;;21.68;41.03;94327.50;4976826;28;20380;-74
2021/08/15 05:51:17;;;;;;;11.32;8.45;;;;;;;21.48;41.72;94317.97;4974912;28;20050;-74
2021/08/15 05:53:42;;;;;;;9.57;7.50;;;;;;;21.79;42.27;94331.09;4975924;28;20626;-74
2021/08/15 05:56:07;;;;;;;20.35;8.32;;;;;;;21.99;40.89;94320.84;4979730;28;20492;-75
2021/08/15 05:58:33;;;;;;;10.90;8.05;;;;;;;22.14;40.23;94319.84;4975273;28;20039;-75
2021/08/15 06:00:58;;;;;;;9.98;8.13;;;;;;;22.23;41.24;94325.75;4973401;28;20045;-75
2021/08/15 06:03:23;;;;;;;11.27;8.30;;;;;;;22.19;41.07;94326.84;4973153;28;20045;-74
2021/08/15 06:05:49;;;;;;;12.45;8.68;;;;;;;22.20;41.17;94310.19;4974672;28;20145;-75
2021/08/15 06:08:16;;;;;;;11.32;8.55;;;;;;;22.35;40.75;94304.91;4972659;28;20365;-74
2021/08/15 06:10:41;;;;;;;13.73;9.35;;;;;;;22.40;40.54;94321.59;4976821;28;20030;-75
2021/08/15 06:13:09;;;;;;;11.75;9.57;;;;;;;22.19;40.97;94308.63;4976478;28;20030;-76
2021/08/15 06:15:34;;;;;;;11.20;8.27;;;;;;;22.01;41.76;94318.53;4975434;28;20054;-75
2021/08/15 06:18:00;;;;;;;14.30;8.63;;;;;;;22.26;41.43;94319.56;4977623;28;20512;-75
2021/08/15 06:20:26;;;;;;;11.80;8.30;;;;;;;22.48;40.49;94314.31;4972868;28;20081;-75
2021/08/15 06:22:51;;;;;;;12.32;8.93;;;;;;;22.68;40.11;94312.91;4974170;28;20489;-76
2021/08/15 06:25:16;;;;;;;11.98;9.73;;;;;;;22.78;40.05;94317.59;4974952;28;20081;-75
2021/08/15 06:27:44;;;;;;;11.20;8.38;;;;;;;22.90;39.76;94311.91;4974031;28;20034;-76
2021/08/15 06:30:14;;;;;;;15.45;9.50;;;;;;;22.90;38.91;94308.41;4976294;28;20072;-76
2021/08/15 06:32:54;;;;;;;13.93;8.82;;;;;;;22.97;39.39;94314.66;4973655;28;20496;-75
2021/08/15 06:35:22;;;;;;;15.23;9.32;;;;;;;23.05;39.10;94316.25;4991348;28;20047;-76
2021/08/15 06:37:48;;;;;;;13.90;8.63;;;;;;;23.14;39.00;94315.88;4972601;28;20039;-76
2021/08/15 06:40:14;;;;;;;11.10;8.75;;;;;;;23.18;39.47;94316.69;4975436;28;20032;-77
2021/08/15 06:42:40;;;;;;;10.93;8.05;;;;;;;23.17;39.36;94309.72;4975902;28;20046;-75
2021/08/15 06:45:06;;;;;;;9.35;8.40;;;;;;;23.30;38.92;94321.00;4975210;28;20231;-76
2021/08/15 06:47:32;;;;;;;14.38;9.32;;;;;;;23.31;38.53;94300.84;4969434;28;20066;-72
2021/08/15 06:49:57;;;;;;;9.52;8.27;;;;;;;23.44;38.41;94316.41;4974936;28;20497;-75
2021/08/15 06:52:23;;;;;;;8.90;7.97;;;;;;;23.27;37.96;94294.66;4973947;28;20037;-75
2021/08/15 06:54:48;;;;;;;10.55;8.10;;;;;;;23.16;38.76;94310.88;4974890;28;20041;-76
2021/08/15 06:57:14;;;;;;;12.55;8.32;;;;;;;23.20;38.35;94297.31;4971056;28;20034;-75
2021/08/15 06:59:40;;;;;;;9.32;8.35;;;;;;;23.24;38.59;94306.25;4975149;28;20046;-75
2021/08/15 07:02:05;;;;;;;11.90;7.72;;;;;;;23.10;38.61;94296.88;4976655;28;20073;-75
2021/08/15 07:04:30;;;;;;;10.25;7.10;;;;;;;23.30;38.43;94308.22;4971746;28;20052;-75
2021/08/15 07:06:56;;;;;;;9.38;7.50;;;;;;;23.45;38.28;94295.47;4973894;28;20527;-74
2021/08/15 07:09:21;;;;;;;8.60;7.38;;;;;;;23.36;37.83;94297.78;4976372;28;20081;-75
2021/08/15 07:11:46;;;;;;;11.15;8.43;;;;;;;23.37;38.40;94310.94;4976626;28;20136;-75
2021/08/15 07:14:12;;;;;;;10.50;7.50;;;;;;;23.46;37.99;94318.75;4986611;28;20049;-74
2021/08/15 07:16:37;;;;;;;10.48;7.90;;;;;;;23.65;37.90;94315.72;4974038;28;20495;-75
2021/08/15 07:19:02;;;;;;;10.38;8.13;;;;;;;23.63;38.86;94301.75;4975449;28;20144;-75
2021/08/15 07:21:28;;;;;;;8.55;7.70;;;;;;;23.88;38.08;94297.16;4973951;28;20049;-74
2021/08/15 07:23:54;;;;;;;9.80;7.72;;;;;;;23.99;36.96;94300.66;4976721;28;20062;-75
2021/08/15 07:26:20;;;;;;;10.10;8.20;;;;;;;23.94;37.32;94295.63;4972802;28;20493;-74
2021/08/15 07:28:45;;;;;;;10.00;8.02;;;;;;;24.08;37.12;94304.94;4970356;28;20806;-75
2021/08/15 07:31:11;;;;;;;9.32;7.97;;;;;;;24.12;38.38;94290.22;4970653;28;20027;-74
2021/08/15 07:33:36;;;;;;;8.80;7.78;;;;;;;24.24;37.23;94297.22;4971361;28;20101;-75
2021/08/15 07:36:02;;;;;;;12.52;8.73;;;;;;;24.24;36.90;94303.44;4971323;28;20069;-76
2021/08/15 07:38:28;;;;;;;10.45;8.35;;;;;;;24.39;37.59;94302.25;4972487;28;20745;-75
2021/08/15 07:40:53;;;;;;;12.52;6.90;;;;;;;24.51;37.41;94301.09;4973375;28;20401;-75
2021/08/15 07:43:19;;;;;;;13.05;7.75;;;;;;;24.60;36.98;94298.75;4973231;28;20053;-75
2021/08/15 07:45:45;;;;;;;10.48;7.53;;;;;;;24.76;37.21;94295.63;4974112;28;20379;-75
2021/08/15 07:48:10;;;;;;;8.27;7.47;;;;;;;24.91;36.42;94299.09;4970483;28;20620;-76
2021/08/15 07:50:39;;;;;;;13.75;7.28;;;;;;;24.89;35.68;94299.50;4972737;28;20034;-75
2021/08/15 07:53:19;;;;;;;8.20;7.00;;;;;;;24.95;36.93;94297.94;4969575;28;20038;-75
2021/08/15 07:55:45;;;;;;;8.90;7.50;;;;;;;24.93;35.70;94294.81;4971637;28;20036;-75
2021/08/15 07:58:11;;;;;;;11.05;7.43;;;;;;;24.84;36.04;94292.50;4975870;28;20018;-75
2021/08/15 08:00:37;;;;;;;10.40;7.00;;;;;;;24.98;37.29;94277.34;4972059;28;20046;-76
2021/08/15 08:03:03;;;;;;;12.07;6.88;;;;;;;24.97;34.85;94283.94;4974669;28;20043;-75
2021/08/15 08:05:29;;;;;;;9.65;6.50;;;;;;;25.05;34.85;94269.13;4970715;28;20038;-75
2021/08/15 08:07:54;;;;;;;9.68;6.90;;;;;;;25.19;34.73;94274.53;4974694;28;20500;-75
2021/08/15 08:10:20;;;;;;;10.75;7.82;;;;;;;25.25;35.05;94278.41;4973991;28;20080;-75
2021/08/15 08:12:45;;;;;;;9.27;7.00;;;;;;;25.29;34.26;94279.16;4990483;28;20498;-75
2021/08/15 08:15:11;;;;;;;8.75;7.10;;;;;;;25.37;34.88;94290.81;4970427;28;20093;-75
2021/08/15 08:17:37;;;;;;;12.35;7.43;;;;;;;25.45;34.71;94286.88;4973996;28;20433;-74
2021/08/15 08:20:03;;;;;;;8.52;7.22;;;;;;;25.46;34.58;94285.72;4968814;28;20173;-75
2021/08/15 08:22:29;;;;;;;11.38;7.13;;;;;;;25.46;33.78;94274.84;4970022;28;20499;-75
2021/08/15 08:24:54;;;;;;;9.57;7.05;;;;;;;25.58;33.64;94275.16;4974584;28;20042;-75
2021/08/15 08:27:20;;;;;;;11.30;7.35;;;;;;;25.62;33.52;94281.34;4975878;28;20569;-75
2021/08/15 08:29:47;;;;;;;10.63;7.35;;;;;;;25.79;33.34;94274.25;4976230;28;20054;-74
2021/08/15 08:32:13;;;;;;;8.57;6.30;;;;;;;25.84;33.70;94267.59;4970555;28;20544;-74
2021/08/15 08:34:38;;;;;;;11.85;7.07;;;;;;;25.97;33.62;94265.97;4976085;28;20030;-74
2021/08/15 08:37:04;;;;;;;10.38;6.07;;;;;;;25.93;33.66;94267.97;4971465;28;20456;-74
2021/08/15 08:39:30;;;;;;;8.10;6.80;;;;;;;25.87;32.09;94253.94;4973358;28;20038;-75
2021/08/15 08:41:59;;;;;;;9.07;5.65;;;;;;;26.02;31.80;94260.09;4972685;28;20551;-75
2021/08/15 08:44:28;;;;;;;9.38;5.90;;;;;;;26.30;31.74;94261.84;4972111;28;20182;-76
2021/08/15 08:46:54;;;;;;;7.47;5.95;;;;;;;26.24;31.84;94245.16;4972660;28;20037;-74
2021/08/15 08:49:20;;;;;;;5.65;5.05;;;;;;;26.20;31.12;94236.22;4978190;28;21113;-75
2021/08/15 08:51:46;;;;;;;8.07;5.95;;;;;;;25.93;30.69;94241.50;4974081;28;20113;-75
2021/08/15 08:54:13;;;;;;;8.68;5.88;;;;;;;26.29;31.28;94242.00;4976228;28;20536;-76
2021/08/15 08:56:38;;;;;;;7.82;5.35;;;;;;;26.37;31.21;94248.91;4974553;28;20053;-74
2021/08/15 08:59:04;;;;;;;5.95;5.43;;;;;;;26.41;30.79;94240.69;4974901;28;20078;-74
2021/08/15 09:01:29;;;;;;;6.13;5.30;;;;;;;26.57;31.06;94237.47;4975938;28;20544;-74
2021/08/15 09:03:55;;;;;;;6.78;4.47;;;;;;;26.58;29.45;94231.63;4973398;28;20039;-74
2021/08/15 09:06:24;;;;;;;7.85;4.80;;;;;;;26.46;29.61;94237.56;4975291;28;20209;-75
2021/08/15 09:08:50;;;;;;;9.07;5.20;;;;;;;26.47;30.18;94234.44;4975437;28;20093;-74
2021/08/15 09:11:20;;;;;;;8.63;5.35;;;;;;;26.34;30.19;94230.66;4972540;28;20133;-74
2021/08/15 09:14:08;;;;;;;6.85;5.72;;;;;;;26.66;32.22;94227.63;4975312;28;20116;-74
2021/08/15 09:17:00;;;;;;;7.03;5.82;;;;;;;26.77;30.74;94227.50;4972926;28;20022;-75
2021/08/15 09:19:32;;;;;;;6.97;5.20;;;;;;;26.64;29.99;94229.22;4976864;28;20596;-75
2021/08/15 09:22:17;;;;;;;6.03;5.40;;;;;;;26.68;30.16;94225.28;4974164;28;20050;-74
2021/08/15 09:24:49;;;;;;;6.57;5.57;;;;;;;26.47;30.42;94228.97;4970337;28;20488;-75
2021/08/15 09:27:19;;;;;;;8.02;5.38;;;;;;;26.50;31.65;94213.75;4976337;28;20089;-75
2021/08/15 09:30:07;;;;;;;7.63;6.10;;;;;;;26.78;29.68;94220.88;4975943;28;20531;-74
2021/08/15 09:32:34;;;;;;;8.30;5.68;;;;;;;26.79;30.79;94225.91;4974781;28;20065;-76
2021/08/15 09:35:02;;;;;;;8.75;5.75;;;;;;;26.58;30.34;94225.38;4976463;28;20034;-74
2021/08/15 09:37:33;;;;;;;8.50;5.10;;;;;;;26.52;30.63;94204.00;4978002;28;20030;-75
2021/08/15 09:39:59;;;;;;;7.40;5.00;;;;;;;26.77;30.40;94200.22;4977818;28;20042;-74
2021/08/15 09:42:44;;;;;;;7.82;5.05;;;;;;;26.97;29.66;94210.13;4977438;28;20038;-76
2021/08/15 09:45:14;;;;;;;6.38;5.75;;;;;;;27.05;29.99;94208.09;4978262;28;20109;-74
2021/08/15 09:47:40;;;;;;;9.02;5.55;;;;;;;26.81;28.90;94198.22;4976927;28;20983;-74
2021/08/15 09:50:19;;;;;;;5.63;4.85;;;;;;;26.45;29.33;94206.75;4977280;28;20050;-75
2021/08/15 09:52:45;;;;;;;6.85;5.45;;;;;;;26.52;30.34;94206.72;4977501;28;20030;-75
2021/08/15 09:55:11;;;;;;;6.80;5.57;;;;;;;26.63;30.02;94198.44;4993375;28;20029;-75
2021/08/15 09:57:37;;;;;;;6.38;5.35;;;;;;;26.90;31.13;94184.88;4976371;28;20054;-75
2021/08/15 10:00:27;;;;;;;7.15;5.70;;;;;;;27.10;34.94;94174.91;4976699;28;20077;-75
2021/08/15 10:02:53;;;;;;;9.73;5.28;;;;;;;27.13;29.36;94167.84;4977253;28;20112;-75
2021/08/15 10:05:19;;;;;;;8.90;5.97;;;;;;;27.21;29.36;94185.69;4975915;28;20031;-74
2021/08/15 10:07:44;;;;;;;7.05;5.80;;;;;;;27.02;29.03;94178.91;4978332;28;20452;-75
2021/08/15 10:10:11;;;;;;;8.93;5.80;;;;;;;26.88;29.61;94184.50;4976623;28;20076;-74
2021/08/15 10:12:37;;;;;;;7.07;5.90;;;;;;;26.79;29.56;94181.50;4976177;28;20070;-74
2021/08/15 10:15:09;;;;;;;7.95;5.47;;;;;;;27.10;30.43;94169.44;4978434;28;20532;-74
2021/08/15 10:17:37;;;;;;;8.52;5.43;;;;;;;27.14;30.36;94170.16;4970437;28;20057;-75
2021/08/15 10:20:08;;;;;;;8.80;5.72;;;;;;;26.95;30.08;94168.03;4973481;28;20022;-74
2021/08/15 10:22:37;;;;;;;5.95;5.35;;;;;;;27.00;29.45;94164.84;4972785;28;20477;-74
2021/08/15 10:25:05;;;;;;;6.15;5.30;;;;;;;26.84;29.60;94153.75;4975419;28;20039;-74
2021/08/15 10:27:40;;;;;;;8.35;5.43;;;;;;;27.01;29.64;94160.16;4977583;28;20166;-75
2021/08/15 10:30:25;;;;;;;;;;;;;;;26.86;29.70;94124.09;4974826;28;20125;-76
2021/08/15 10:32:57;;;;;;;8.05;5.10;;;;;;;26.86;29.58;94165.03;4961995;28;19921;-75
2021/08/15 10:35:29;;;;;;;7.88;5.85;;;;;;;27.00;28.35;94164.84;4977226;28;20085;-74
2021/08/15 10:38:00;;;;;;;7.38;5.78;;;;;;;27.18;29.37;94153.75;4976341;28;20109;-74
2021/08/15 10:40:41;;;;;;;6.53;5.50;;;;;;;27.59;28.10;94159.03;4971917;28;20030;-75
2021/08/15 10:43:11;;;;;;;6.95;5.65;;;;;;;27.78;28.70;94147.41;4974279;28;20047;-74
2021/08/15 10:45:37;;;;;;;7.03;5.22;;;;;;;27.53;28.10;94131.38;4973397;28;20635;-77
2021/08/15 10:48:05;;;;;;;5.25;4.78;;;;;;;27.63;27.92;94141.38;4974657;28;20117;-76
2021/08/15 10:50:49;;;;;;;9.68;5.25;;;;;;;27.54;28.26;94138.38;4991562;28;20100;-76
2021/08/15 10:53:30;;;;;;;6.88;5.47;;;;;;;27.84;28.62;94140.28;4978284;28;20481;-76
2021/08/15 10:55:58;;;;;;;5.78;4.90;;;;;;;27.86;28.08;94132.44;4970156;28;20272;-75
2021/08/15 10:58:44;;;;;;;6.30;5.13;;;;;;;27.95;28.23;94135.41;4972685;28;20056;-73
2021/08/15 11:01:15;;;;;;;6.35;5.50;;;;;;;27.86;28.00;94137.16;4967880;28;20149;-75
2021/08/15 11:03:46;;;;;;;6.85;5.35;;;;;;;27.70;27.42;94135.81;4972664;28;20429;-74
2021/08/15 11:06:32;;;;;;;6.40;5.50;;;;;;;27.49;28.08;94132.59;4973158;28;20162;-74
2021/08/15 11:09:08;;;;;;;6.75;5.93;;;;;;;27.60;28.86;94122.34;4963725;28;20046;-75
2021/08/15 11:11:36;;;;;;;5.50;5.00;;;;;;;27.60;28.39;94131.31;4970114;28;20092;-75
2021/08/15 11:14:24;;;;;;;5.90;5.40;;;;;;;27.75;27.37;94129.13;4972889;28;20036;-75
2021/08/15 11:16:55;;;;;;;5.43;4.93;;;;;;;27.85;27.96;94111.78;4970074;28;20042;-76
2021/08/15 11:19:20;;;;;;;6.53;5.70;;;;;;;28.01;27.04;94111.88;4971490;28;20304;-75
2021/08/15 11:22:16;;;;;;;5.57;5.07;;;;;;;27.96;26.84;94112.34;4971425;28;20752;-75
2021/08/15 11:24:45;;;;;;;6.43;5.70;;;;;;;28.05;27.75;94111.81;4974306;28;20299;-75
2021/08/15 11:27:15;;;;;;;7.15;5.32;;;;;;;28.20;27.36;94102.22;4970603;28;20043;-78
2021/08/15 11:29:42;;;;;;;5.25;4.55;;;;;;;28.49;29.26;94097.75;4989916;28;20070;-75
2021/08/15 11:32:28;;;;;;;6.28;5.40;;;;;;;28.50;26.37;94093.03;4987065;28;21195;-75